Time;durP1;ratioP1;P1;durP2;ratioP2;P2;SDS_P1;SDS_P2;PMS_P1;PMS_P2;Temp;Humidity;BMP_temperature;BMP_pressure;BME280_temperature;BME280_humidity;BME280_pressure;Samples;Min_cycle;Max_cycle;Signal;HPM_P1;HPM_P2
2021/10/10 00:02:06;;;;;;;4.60;1.33;;;;;;;;;;5028988;28;20176;-73
2021/10/10 00:04:32;;;;;;;4.43;1.90;;;;;;;;;;5029115;28;20035;-73
2021/10/10 00:06:58;;;;;;;5.75;1.55;;;;;;;;;;5027888;28;20029;-73
2021/10/10 00:09:25;;;;;;;3.40;1.40;;;;;;;;;;5028912;28;20018;-73
2021/10/10 00:11:51;;;;;;;3.17;1.27;;;;;;;;;;5028685;28;20037;-73
2021/10/10 00:14:17;;;;;;;3.97;1.70;;;;;;;;;;5029202;28;20036;-72
2021/10/10 00:16:44;;;;;;;3.60;1.48;;;;;;;;;;5029089;28;20025;-73
2021/10/10 00:19:10;;;;;;;3.67;1.13;;;;;;;;;;5028779;28;20029;-72
2021/10/10 00:21:37;;;;;;;5.75;1.40;;;;;;;;;;5027129;28;20057;-73
2021/10/10 00:24:03;;;;;;;2.30;1.38;;;;;;;;;;5027795;28;20037;-73
2021/10/10 00:26:29;;;;;;;3.25;1.30;;;;;;;;;;5028215;28;20022;-73
2021/10/10 00:28:55;;;;;;;5.13;1.40;;;;;;;;;;5026977;28;20056;-73
2021/10/10 00:31:21;;;;;;;1.60;1.20;;;;;;;;;;5028584;28;20033;-73
2021/10/10 00:33:48;;;;;;;3.35;1.20;;;;;;;;;;5026923;28;20049;-73
2021/10/10 00:36:14;;;;;;;2.42;1.10;;;;;;;;;;5029013;28;20104;-72
2021/10/10 00:38:40;;;;;;;1.42;1.08;;;;;;;;;;5028319;28;20029;-73
2021/10/10 00:41:07;;;;;;;1.50;1.02;;;;;;;;;;5028419;28;20022;-73
2021/10/10 00:43:33;;;;;;;2.22;1.23;;;;;;;;;;5027091;28;20043;-73
2021/10/10 00:45:59;;;;;;;3.90;1.30;;;;;;;;;;5026753;28;20078;-73
2021/10/10 00:48:25;;;;;;;2.80;1.20;;;;;;;;;;5028263;28;20033;-73
2021/10/10 00:50:51;;;;;;;1.83;0.90;;;;;;;;;;5028085;28;20040;-73
2021/10/10 00:53:19;;;;;;;2.33;1.48;;;;;;;;;;5028360;28;20040;-74
2021/10/10 00:55:52;;;;;;;4.07;1.60;;;;;;;;;;5028224;28;20039;-73
2021/10/10 00:58:25;;;;;;;2.00;1.15;;;;;;;;;;5028639;28;20601;-73
2021/10/10 01:00:52;;;;;;;2.72;1.48;;;;;;;;;;5026306;28;20033;-73
2021/10/10 01:03:19;;;;;;;2.65;1.20;;;;;;;;;;5027697;28;20032;-73
2021/10/10 01:05:46;;;;;;;3.65;1.50;;;;;;;;;;5026220;28;20030;-73
2021/10/10 01:08:15;;;;;;;4.40;1.30;;;;;;;;;;5027659;28;20021;-73
2021/10/10 01:10:42;;;;;;;4.10;1.50;;;;;;;;;;5026269;28;20533;-73
2021/10/10 01:13:09;;;;;;;5.15;1.30;;;;;;;;;;5027834;28;20064;-73
2021/10/10 01:15:35;;;;;;;5.85;1.80;;;;;;;;;;5027467;28;20021;-73
2021/10/10 01:18:01;;;;;;;3.42;1.45;;;;;;;;;;5027528;28;20037;-73
2021/10/10 01:20:28;;;;;;;4.70;1.58;;;;;;;;;;5027322;28;20021;-73
2021/10/10 01:22:54;;;;;;;4.10;1.90;;;;;;;;;;5027844;28;20025;-73
2021/10/10 01:25:20;;;;;;;5.13;2.00;;;;;;;;;;5025564;28;20021;-73
2021/10/10 01:27:47;;;;;;;4.90;1.80;;;;;;;;;;5027036;28;20720;-73
2021/10/10 01:30:13;;;;;;;4.65;2.03;;;;;;;;;;5027550;28;20029;-73
2021/10/10 01:32:39;;;;;;;6.57;1.73;;;;;;;;;;5027139;28;20040;-73
2021/10/10 01:35:05;;;;;;;3.58;1.40;;;;;;;;;;5027204;28;20033;-73
2021/10/10 01:37:31;;;;;;;5.80;1.58;;;;;;;;;;5025414;28;20031;-72
2021/10/10 01:39:58;;;;;;;3.75;1.60;;;;;;;;;;5027245;28;20036;-73
2021/10/10 01:42:24;;;;;;;2.75;1.38;;;;;;;;;;5027077;28;20029;-72
2021/10/10 01:44:50;;;;;;;4.95;1.65;;;;;;;;;;5027011;28;20087;-73
2021/10/10 01:47:16;;;;;;;2.70;1.48;;;;;;;;;;5027255;28;20025;-73
2021/10/10 01:49:42;;;;;;;1.45;1.20;;;;;;;;;;5027287;28;20031;-73
2021/10/10 01:52:08;;;;;;;1.88;1.35;;;;;;;;;;5024972;28;20467;-73
2021/10/10 01:54:34;;;;;;;4.47;2.28;;;;;;;;;;5026797;28;20017;-73
2021/10/10 01:57:00;;;;;;;4.95;1.75;;;;;;;;;;5026814;28;20026;-73
2021/10/10 01:59:27;;;;;;;1.52;1.17;;;;;;;;;;5027160;28;20030;-73
2021/10/10 02:01:54;;;;;;;2.45;1.30;;;;;;;;;;5026868;28;20400;-73
2021/10/10 02:04:20;;;;;;;3.10;1.20;;;;;;;;;;5024987;28;20034;-73
2021/10/10 02:06:46;;;;;;;2.95;1.67;;;;;;;;;;5027011;28;20022;-73
2021/10/10 02:09:13;;;;;;;2.35;1.20;;;;;;;;;;5026797;28;20486;-73
2021/10/10 02:11:39;;;;;;;7.20;1.77;;;;;;;;;;5006391;28;20029;-73
2021/10/10 02:14:05;;;;;;;2.22;1.58;;;;;;;;;;5006723;28;20057;-73
2021/10/10 02:16:31;;;;;;;3.90;1.60;;;;;;;;;;5004400;28;20088;-72
2021/10/10 02:18:57;;;;;;;4.28;1.20;;;;;;;;;;5006712;28;20498;-74
2021/10/10 02:21:23;;;;;;;2.90;1.50;;;;;;;;;;5006721;28;20553;-73
2021/10/10 02:23:50;;;;;;;6.03;2.25;;;;;;;;;;5007079;28;20034;-73
2021/10/10 02:26:16;;;;;;;4.15;1.58;;;;;;;;;;5006742;28;20028;-73
2021/10/10 02:28:42;;;;;;;8.23;2.22;;;;;;;;;;5005055;28;20127;-73
2021/10/10 02:31:08;;;;;;;3.95;1.52;;;;;;;;;;5006974;28;20109;-73
2021/10/10 02:33:34;;;;;;;1.95;1.40;;;;;;;;;;5006679;28;20036;-72
2021/10/10 02:36:00;;;;;;;3.03;1.40;;;;;;;;;;5007140;28;20413;-73
2021/10/10 02:38:26;;;;;;;9.02;2.00;;;;;;;;;;5006791;28;20525;-72
2021/10/10 02:40:53;;;;;;;3.70;1.33;;;;;;;;;;5005170;28;20026;-73
2021/10/10 02:43:19;;;;;;;5.18;2.00;;;;;;;;;;5006999;28;20076;-73
2021/10/10 02:45:45;;;;;;;5.00;1.70;;;;;;;;;;5006436;28;20029;-73
2021/10/10 02:48:11;;;;;;;6.93;2.13;;;;;;;;;;5008468;28;20053;-73
2021/10/10 02:50:37;;;;;;;5.85;1.90;;;;;;;;;;5008811;28;20057;-73
2021/10/10 02:53:03;;;;;;;6.05;1.98;;;;;;;;;;5010467;28;20072;-73
2021/10/10 02:55:30;;;;;;;3.33;1.58;;;;;;;;;;5010256;28;20029;-73
2021/10/10 02:57:56;;;;;;;2.80;1.52;;;;;;;;;;5009079;28;20037;-72
2021/10/10 03:00:22;;;;;;;2.47;1.70;;;;;;;;;;5008653;28;20030;-73
2021/10/10 03:02:48;;;;;;;4.57;1.80;;;;;;;;;;5008821;28;20030;-72
2021/10/10 03:05:14;;;;;;;3.42;1.63;;;;;;;;;;5007882;28;20018;-73
2021/10/10 03:07:40;;;;;;;2.83;1.63;;;;;;;;;;5007494;28;20026;-73
2021/10/10 03:10:07;;;;;;;2.00;1.55;;;;;;;;;;5007397;28;20072;-73
2021/10/10 03:12:33;;;;;;;4.07;1.80;;;;;;;;;;5016458;28;20037;-73
2021/10/10 03:14:59;;;;;;;2.45;1.50;;;;;;;;;;5027062;28;20021;-72
2021/10/10 03:17:25;;;;;;;3.55;1.70;;;;;;;;;;5027517;28;20057;-73
2021/10/10 03:19:51;;;;;;;4.70;1.60;;;;;;;;;;5027346;28;20025;-73
2021/10/10 03:22:17;;;;;;;4.53;1.80;;;;;;;;;;5027404;28;20025;-73
2021/10/10 03:24:44;;;;;;;4.78;1.60;;;;;;;;;;5026722;28;20116;-72
2021/10/10 03:27:10;;;;;;;4.22;2.30;;;;;;;;;;5026556;28;20025;-72
2021/10/10 03:29:36;;;;;;;3.47;1.95;;;;;;;;;;5026828;28;20060;-72
2021/10/10 03:32:02;;;;;;;3.40;2.20;;;;;;;;;;5027351;28;20017;-73
2021/10/10 03:34:28;;;;;;;4.85;2.08;;;;;;;;;;5027334;28;20029;-72
2021/10/10 03:36:54;;;;;;;7.95;2.55;;;;;;;;;;5025465;28;20044;-73
2021/10/10 03:39:20;;;;;;;3.95;2.10;;;;;;;;;;5026949;28;20428;-72
2021/10/10 03:41:47;;;;;;;5.20;1.98;;;;;;;;;;5027080;28;20072;-73
2021/10/10 03:44:13;;;;;;;3.95;1.80;;;;;;;;;;5026971;28;20132;-73
2021/10/10 03:58:06;;;;;;;5.40;2.50;;;;;;;;;;5169646;27;20415;-73
2021/10/10 04:00:33;;;;;;;5.40;2.05;;;;;;;;;;5170053;27;20496;-73
2021/10/10 04:03:02;;;;;;;4.57;2.20;;;;;;;;;;5168288;27;20018;-73
2021/10/10 04:07:58;;;;;;;9.57;3.28;;;;;;;;;;5170220;27;20172;-73
2021/10/10 04:10:24;;;;;;;4.32;2.35;;;;;;;;;;5169430;27;20469;-73
2021/10/10 04:12:51;;;;;;;2.95;2.30;;;;;;;;;;5168211;27;20040;-73
2021/10/10 04:15:17;;;;;;;5.68;2.30;;;;;;;;;;5169862;27;20015;-73
2021/10/10 04:17:44;;;;;;;6.63;2.50;;;;;;;;;;5169495;27;20557;-73
2021/10/10 04:20:12;;;;;;;5.85;2.50;;;;;;;;;;5169445;27;20029;-73
2021/10/10 04:22:38;;;;;;;5.93;2.70;;;;;;;;;;5169401;27;20481;-73
2021/10/10 04:25:05;;;;;;;9.07;3.40;;;;;;;;;;5167716;27;20487;-73
2021/10/10 04:27:33;;;;;;;11.02;3.28;;;;;;;;;;5169265;27;20118;-73
2021/10/10 04:29:59;;;;;;;7.30;2.58;;;;;;;;;;5169634;27;20110;-73
2021/10/10 04:32:25;;;;;;;8.82;2.60;;;;;;;;;;5168230;27;20041;-72
2021/10/10 04:34:51;;;;;;;5.32;1.92;;;;;;;;;;5169775;27;20500;-73
2021/10/10 04:37:18;;;;;;;5.22;2.17;;;;;;;;;;5169138;27;20030;-73
2021/10/10 04:39:44;;;;;;;6.05;2.00;;;;;;;;;;5168968;27;20030;-73
2021/10/10 04:42:10;;;;;;;4.75;2.20;;;;;;;;;;5169319;27;20025;-73
2021/10/10 04:44:37;;;;;;;4.20;2.22;;;;;;;;;;5167581;27;20104;-73
2021/10/10 04:47:06;;;;;;;5.43;2.10;;;;;;;;;;5169210;27;20030;-73
2021/10/10 04:49:32;;;;;;;3.20;2.28;;;;;;;;;;5169095;27;20034;-73
2021/10/10 04:51:59;;;;;;;4.50;2.10;;;;;;;;;;5168906;27;20031;-73
2021/10/10 04:54:25;;;;;;;2.75;1.80;;;;;;;;;;5167821;27;20029;-73
2021/10/10 04:56:51;;;;;;;4.75;2.40;;;;;;;;;;5167863;27;20061;-73
2021/10/10 04:59:17;;;;;;;3.78;2.30;;;;;;;;;;5154755;27;20015;-73
2021/10/10 05:01:43;;;;;;;3.65;2.35;;;;;;;;;;5153689;27;20489;-73
2021/10/10 05:04:10;;;;;;;4.30;2.42;;;;;;;;;;5154812;27;20023;-73
2021/10/10 05:06:36;;;;;;;4.60;2.40;;;;;;;;;;5155049;27;20481;-73
2021/10/10 05:09:02;;;;;;;4.60;2.28;;;;;;;;;;5154704;27;20026;-73
2021/10/10 05:11:28;;;;;;;5.07;2.58;;;;;;;;;;5151967;27;20027;-73
2021/10/10 05:13:54;;;;;;;5.07;2.63;;;;;;;;;;5154684;27;20019;-73
2021/10/10 05:16:20;;;;;;;4.32;2.58;;;;;;;;;;5154831;27;20022;-73
2021/10/10 05:18:46;;;;;;;3.20;2.08;;;;;;;;;;5154772;27;20022;-73
2021/10/10 05:21:13;;;;;;;4.22;2.47;;;;;;;;;;5152780;27;20035;-73
2021/10/10 05:23:39;;;;;;;7.05;2.75;;;;;;;;;;5154503;27;20025;-73
2021/10/10 05:26:06;;;;;;;3.75;2.00;;;;;;;;;;5154829;27;20409;-73
2021/10/10 05:28:32;;;;;;;2.55;2.22;;;;;;;;;;5154494;27;20015;-73
2021/10/10 05:30:58;;;;;;;4.28;2.55;;;;;;;;;;5154458;27;20049;-73
2021/10/10 05:33:25;;;;;;;8.32;2.60;;;;;;;;;;5153095;27;20377;-73
2021/10/10 05:35:51;;;;;;;4.68;2.50;;;;;;;;;;5154335;27;20090;-73
2021/10/10 05:38:17;;;;;;;4.47;2.15;;;;;;;;;;5154310;27;20027;-73
2021/10/10 05:40:43;;;;;;;3.78;2.53;;;;;;;;;;5154541;27;20027;-73
2021/10/10 05:43:10;;;;;;;3.03;1.80;;;;;;;;;;5154288;27;20027;-73
2021/10/10 05:45:36;;;;;;;2.67;1.73;;;;;;;;;;5152788;27;20113;-73
2021/10/10 05:48:02;;;;;;;4.13;2.25;;;;;;;;;;5154057;27;20033;-73
2021/10/10 05:50:28;;;;;;;3.88;2.00;;;;;;;;;;5154175;27;20030;-73
2021/10/10 05:52:55;;;;;;;7.53;2.10;;;;;;;;;;5154284;27;20035;-73
2021/10/10 05:55:23;;;;;;;2.90;1.88;;;;;;;;;;5154185;27;20192;-73
2021/10/10 05:57:51;;;;;;;2.72;2.00;;;;;;;;;;5151966;27;20047;-73
2021/10/10 06:00:20;;;;;;;4.20;2.17;;;;;;;;;;5153998;27;20026;-73
2021/10/10 06:02:46;;;;;;;2.75;1.80;;;;;;;;;;5153353;27;20382;-73
2021/10/10 06:05:13;;;;;;;5.35;2.20;;;;;;;;;;5153838;27;20023;-73
2021/10/10 06:07:39;;;;;;;3.00;2.00;;;;;;;;;;5152313;27;20035;-73
2021/10/10 06:10:06;;;;;;;7.93;2.22;;;;;;;;;;5152796;27;20019;-73
2021/10/10 06:12:33;;;;;;;2.60;1.95;;;;;;;;;;5153336;27;20378;-73
2021/10/10 06:15:00;;;;;;;4.97;2.42;;;;;;;;;;5154362;27;20022;-73
2021/10/10 06:17:26;;;;;;;9.18;2.33;;;;;;;;;;5153571;27;20455;-73
2021/10/10 06:19:52;;;;;;;3.78;2.20;;;;;;;;;;5153421;27;20034;-73
2021/10/10 06:22:18;;;;;;;5.13;2.47;;;;;;;;;;5151735;27;20063;-73
2021/10/10 06:24:44;;;;;;;4.25;2.47;;;;;;;;;;5153492;27;20027;-73
2021/10/10 06:27:10;;;;;;;5.18;2.55;;;;;;;;;;5153501;27;20117;-73
2021/10/10 06:29:37;;;;;;;3.67;2.55;;;;;;;;;;5151954;27;20048;-73
2021/10/10 06:32:03;;;;;;;3.40;2.70;;;;;;;;;;5153205;27;20106;-73
2021/10/10 06:34:29;;;;;;;3.90;2.30;;;;;;;;;;5151680;27;20019;-72
2021/10/10 06:36:55;;;;;;;3.00;1.95;;;;;;;;;;5153517;27;20022;-73
2021/10/10 06:39:21;;;;;;;3.88;1.70;;;;;;;;;;5153086;27;20075;-73
2021/10/10 06:41:50;;;;;;;4.75;1.85;;;;;;;;;;5152863;27;20074;-73
2021/10/10 06:44:17;;;;;;;4.43;2.10;;;;;;;;;;5151714;27;20493;-73
2021/10/10 06:46:44;;;;;;;6.07;1.88;;;;;;;;;;5152936;27;20042;-73
2021/10/10 06:49:10;;;;;;;4.25;2.67;;;;;;;;;;5152767;27;20033;-73
2021/10/10 06:51:36;;;;;;;4.90;2.50;;;;;;;;;;5152863;27;20026;-74
2021/10/10 06:54:03;;;;;;;7.10;2.60;;;;;;;;;;5152969;27;20026;-73
2021/10/10 06:56:29;;;;;;;6.38;1.63;;;;;;;;;;5151002;27;20042;-73
2021/10/10 06:58:55;;;;;;;3.33;2.00;;;;;;;;;;5152415;27;20507;-73
2021/10/10 07:01:21;;;;;;;2.60;1.48;;;;;;;;;;5153127;27;20052;-73
2021/10/10 07:03:47;;;;;;;2.60;1.40;;;;;;;;;;5152440;27;20367;-73
2021/10/10 07:06:13;;;;;;;3.47;1.63;;;;;;;;;;5152884;27;20129;-73
2021/10/10 07:08:40;;;;;;;1.85;1.40;;;;;;;;;;5152797;27;20093;-73
2021/10/10 07:11:06;;;;;;;5.22;1.50;;;;;;;;;;5150892;27;20473;-72
2021/10/10 07:13:32;;;;;;;3.45;1.60;;;;;;;;;;5152555;27;20030;-73
2021/10/10 07:15:59;;;;;;;2.03;1.45;;;;;;;;;;5152328;27;20026;-73
2021/10/10 07:18:37;;;;;;;3.55;1.60;;;;;;;;;;5151715;27;20027;-73
2021/10/10 07:26:21;;;;;;;3.47;1.60;;;;;;;;;;5131742;27;20060;-73
2021/10/10 07:28:47;;;;;;;3.35;1.60;;;;;;;;;;5133487;27;20015;-73
2021/10/10 07:31:13;;;;;;;5.45;1.48;;;;;;;;;;5131095;27;20401;-73
2021/10/10 07:33:40;;;;;;;5.00;1.95;;;;;;;;;;5129567;27;20056;-73
2021/10/10 07:36:06;;;;;;;2.72;1.70;;;;;;;;;;5139181;27;20044;-73
2021/10/10 07:38:33;;;;;;;5.68;1.83;;;;;;;;;;5136524;27;20019;-73
2021/10/10 07:41:00;;;;;;;3.85;2.22;;;;;;;;;;5141875;27;20475;-73
2021/10/10 07:43:27;;;;;;;3.65;2.00;;;;;;;;;;5131737;27;20098;-73
2021/10/10 07:45:54;;;;;;;3.00;1.48;;;;;;;;;;5136351;27;20475;-73
2021/10/10 07:48:20;;;;;;;2.30;1.38;;;;;;;;;;5136388;27;20026;-73
2021/10/10 07:50:47;;;;;;;3.30;2.05;;;;;;;;;;5139162;27;20109;-73
2021/10/10 07:53:15;;;;;;;5.07;1.70;;;;;;;;;;5143819;27;20037;-73
2021/10/10 07:55:42;;;;;;;3.97;1.67;;;;;;;;;;5149381;27;20526;-73
2021/10/10 07:58:08;;;;;;;4.72;2.10;;;;;;;;;;5147900;27;20088;-73
2021/10/10 08:00:34;;;;;;;2.92;1.58;;;;;;;;;;5149276;27;20466;-73
2021/10/10 08:03:02;;;;;;;7.35;2.10;;;;;;;;;;5151360;27;20015;-73
2021/10/10 08:05:29;;;;;;;3.80;1.63;;;;;;;;;;5150287;27;20038;-73
2021/10/10 08:07:56;;;;;;;4.25;2.00;;;;;;;;;;5144529;27;20526;-73
2021/10/10 08:10:23;;;;;;;4.50;2.25;;;;;;;;;;5148325;27;20030;-73
2021/10/10 08:12:49;;;;;;;4.80;1.90;;;;;;;;;;5150929;27;20477;-73
2021/10/10 08:15:16;;;;;;;5.47;1.77;;;;;;;;;;5150608;27;20427;-73
2021/10/10 08:17:42;;;;;;;4.57;1.90;;;;;;;;;;5151697;27;20019;-73
2021/10/10 08:20:09;;;;;;;6.10;2.08;;;;;;;;;;5150799;27;20058;-73
2021/10/10 08:22:37;;;;;;;3.60;1.75;;;;;;;;;;5149537;27;20497;-73
2021/10/10 08:25:12;;;;;;;2.35;1.48;;;;;;;;;;5151660;27;20052;-73
2021/10/10 08:27:42;;;;;;;3.83;1.92;;;;;;;;;;5151657;27;20027;-73
2021/10/10 08:30:10;;;;;;;2.65;1.75;;;;;;;;;;5151478;27;20030;-73
2021/10/10 08:32:36;;;;;;;4.13;1.83;;;;;;;;;;5150956;27;20019;-73
2021/10/10 08:35:03;;;;;;;2.58;1.42;;;;;;;;;;5156781;27;20102;-72
2021/10/10 08:37:29;;;;;;;7.15;2.03;;;;;;;;;;5133703;27;20042;-73
2021/10/10 08:39:55;;;;;;;3.90;1.80;;;;;;;;;;5132920;27;20022;-73
2021/10/10 08:42:23;;;;;;;6.15;1.70;;;;;;;;;;5133818;27;20037;-73
2021/10/10 08:44:52;;;;;;;3.97;1.95;;;;;;;;;;5131416;27;20015;-73
2021/10/10 08:47:20;;;;;;;4.40;2.25;;;;;;;;;;5132276;27;20031;-73
2021/10/10 08:49:46;;;;;;;6.05;1.95;;;;;;;;;;5132007;27;20105;-73
2021/10/10 08:52:14;;;;;;;5.75;1.70;;;;;;;;;;5132709;27;20027;-73
2021/10/10 08:54:42;;;;;;;3.58;2.03;;;;;;;;;;5132737;27;20216;-73
2021/10/10 08:57:09;;;;;;;4.43;1.80;;;;;;;;;;5130905;27;20041;-73
2021/10/10 08:59:40;;;;;;;8.45;2.10;;;;;;;;;;5133027;27;20526;-73
2021/10/10 09:02:08;;;;;;;6.35;2.25;;;;;;;;;;5133731;27;20524;-73
2021/10/10 09:04:41;;;;;;;4.72;1.83;;;;;;;;;;5133339;27;20105;-73
2021/10/10 09:07:07;;;;;;;4.68;1.90;;;;;;;;;;5132917;27;20071;-73
2021/10/10 09:09:37;;;;;;;6.45;2.05;;;;;;;;;;5132649;27;20536;-73
2021/10/10 09:12:06;;;;;;;4.72;1.95;;;;;;;;;;5131406;27;20100;-73
2021/10/10 09:14:45;;;;;;;6.78;1.70;;;;;;;;;;5132876;27;20416;-73
2021/10/10 09:17:13;;;;;;;4.57;2.22;;;;;;;;;;5132864;27;20019;-73
2021/10/10 09:19:39;;;;;;;5.05;2.10;;;;;;;;;;5132723;27;20379;-73
2021/10/10 09:22:06;;;;;;;10.15;2.00;;;;;;;;;;5132690;27;20106;-73
2021/10/10 09:24:34;;;;;;;6.97;2.08;;;;;;;;;;5131590;27;20529;-73
2021/10/10 09:27:03;;;;;;;8.63;2.60;;;;;;;;;;5132579;27;20046;-73
2021/10/10 09:29:37;;;;;;;2.95;1.48;;;;;;;;;;5132497;27;20710;-73
2021/10/10 09:32:04;;;;;;;5.97;2.00;;;;;;;;;;5127702;27;20031;-73
2021/10/10 09:34:30;;;;;;;5.20;2.42;;;;;;;;;;5126057;27;20019;-72
2021/10/10 09:36:59;;;;;;;5.70;2.20;;;;;;;;;;5129533;27;20053;-72
2021/10/10 09:39:34;;;;;;;9.20;2.05;;;;;;;;;;5129042;27;20497;-73
2021/10/10 09:42:02;;;;;;;8.82;2.10;;;;;;;;;;5130743;27;20019;-73
2021/10/10 09:44:41;;;;;;;9.35;2.53;;;;;;;;;;5128996;27;20096;-73
2021/10/10 09:47:08;;;;;;;6.55;2.17;;;;;;;;;;5130628;27;20063;-73
2021/10/10 09:49:34;;;;;;;7.32;2.03;;;;;;;;;;5130127;27;20272;-72
2021/10/10 09:52:11;;;;;;;5.70;2.67;;;;;;;;;;5130410;27;20067;-73
2021/10/10 09:54:57;;;;;;;10.57;2.30;;;;;;;;;;5130734;27;20509;-73
2021/10/10 09:57:24;;;;;;;5.80;2.40;;;;;;;;;;5128703;27;20043;-72
2021/10/10 09:59:50;;;;;;;4.70;1.80;;;;;;;;;;5130173;27;20035;-73
2021/10/10 10:02:17;;;;;;;9.57;2.83;;;;;;;;;;5130121;27;20027;-73
2021/10/10 10:04:44;;;;;;;11.60;2.60;;;;;;;;;;5130412;27;20094;-73
2021/10/10 10:07:14;;;;;;;8.00;2.15;;;;;;;;;;5128666;27;20158;-73
2021/10/10 10:09:40;;;;;;;11.38;2.72;;;;;;;;;;5130134;27;20011;-73
2021/10/10 10:12:07;;;;;;;4.88;2.35;;;;;;;;;;5128497;27;20026;-72
2021/10/10 10:14:34;;;;;;;5.80;2.03;;;;;;;;;;5126739;27;20076;-73
2021/10/10 10:17:02;;;;;;;4.90;1.90;;;;;;;;;;5125511;27;20072;-72
2021/10/10 10:19:29;;;;;;;4.43;1.77;;;;;;;;;;5126118;27;20382;-73
2021/10/10 10:21:56;;;;;;;8.15;1.90;;;;;;;;;;5126314;27;20488;-73
2021/10/10 10:24:23;;;;;;;8.57;3.45;;;;;;;;;;5126977;27;20023;-73
2021/10/10 10:26:49;;;;;;;7.25;2.15;;;;;;;;;;5126241;27;20043;-72
2021/10/10 10:29:18;;;;;;;5.65;1.90;;;;;;;;;;5126140;27;20071;-73
2021/10/10 10:31:45;;;;;;;13.57;1.92;;;;;;;;;;5124454;27;20031;-73
2021/10/10 10:34:31;;;;;;;6.25;1.70;;;;;;;;;;5126527;27;20455;-73
2021/10/10 10:37:04;;;;;;;7.95;2.20;;;;;;;;;;5126223;27;20023;-73
2021/10/10 10:39:50;;;;;;;4.45;2.00;;;;;;;;;;5124252;27;20015;-73
2021/10/10 10:42:25;;;;;;;2.83;1.50;;;;;;;;;;5125999;27;20027;-73
2021/10/10 10:44:52;;;;;;;7.68;1.90;;;;;;;;;;5126241;27;20019;-73
2021/10/10 10:47:19;;;;;;;5.95;2.35;;;;;;;;;;5125525;27;20043;-73
2021/10/10 10:49:55;;;;;;;5.07;2.40;;;;;;;;;;5125792;27;20111;-73
2021/10/10 10:52:27;;;;;;;5.80;1.73;;;;;;;;;;5122658;27;20462;-73
2021/10/10 10:55:14;;;;;;;5.90;2.42;;;;;;;;;;5125549;27;20030;-73
2021/10/10 10:57:43;;;;;;;5.88;2.22;;;;;;;;;;5125209;27;20414;-73
2021/10/10 11:00:10;;;;;;;3.72;1.67;;;;;;;;;;5125749;27;20019;-72
2021/10/10 11:02:48;;;;;;;5.38;1.98;;;;;;;;;;5124176;27;20074;-73
2021/10/10 11:05:33;;;;;;;5.90;2.20;;;;;;;;;;5125280;27;20034;-73
2021/10/10 11:08:04;;;;;;;8.27;2.45;;;;;;;;;;5125620;27;20031;-73
2021/10/10 11:10:30;;;;;;;9.48;2.10;;;;;;;;;;5126037;27;20100;-73
2021/10/10 11:12:57;;;;;;;6.05;2.13;;;;;;;;;;5125357;27;20509;-72
2021/10/10 11:15:23;;;;;;;8.55;2.25;;;;;;;;;;5125414;27;20027;-73
2021/10/10 11:17:56;;;;;;;5.25;2.00;;;;;;;;;;5123940;27;20027;-73
2021/10/10 11:20:23;;;;;;;6.30;2.47;;;;;;;;;;5125896;27;20160;-73
2021/10/10 11:22:49;;;;;;;8.82;2.00;;;;;;;;;;5125652;27;20023;-72
2021/10/10 11:25:15;;;;;;;5.05;1.98;;;;;;;;;;5125364;27;20042;-72
2021/10/10 11:27:42;;;;;;;7.07;1.85;;;;;;;;;;5123748;27;20110;-72
2021/10/10 11:30:08;;;;;;;4.55;2.10;;;;;;;;;;5125423;27;20173;-73
2021/10/10 11:32:49;;;;;;;4.90;2.15;;;;;;;;;;5125722;27;20179;-73
2021/10/10 11:35:22;;;;;;;5.75;1.90;;;;;;;;;;5125363;27;20093;-73
2021/10/10 11:38:06;;;;;;;5.97;1.92;;;;;;;;;;5124990;27;20474;-73
2021/10/10 11:40:33;;;;;;;7.00;2.05;;;;;;;;;;5123282;27;20063;-72
2021/10/10 11:42:59;;;;;;;3.53;1.50;;;;;;;;;;5125390;27;20504;-72
2021/10/10 11:45:26;;;;;;;8.32;2.30;;;;;;;;;;5125058;27;20053;-72
2021/10/10 11:47:52;;;;;;;4.00;1.67;;;;;;;;;;5125066;27;20072;-73
2021/10/10 11:50:19;;;;;;;6.32;2.00;;;;;;;;;;5123563;28;20023;-73
2021/10/10 11:52:58;;;;;;;4.80;1.90;;;;;;;;;;5124869;28;20114;-73
2021/10/10 11:55:33;;;;;;;9.15;2.47;;;;;;;;;;5125347;27;20024;-73
2021/10/10 11:58:01;;;;;;;9.75;2.08;;;;;;;;;;5125223;27;20146;-73
2021/10/10 12:00:30;;;;;;;4.05;1.67;;;;;;;;;;5125160;27;20027;-73
2021/10/10 12:03:04;;;;;;;7.00;1.98;;;;;;;;;;5123511;28;20023;-73
2021/10/10 12:05:30;;;;;;;12.27;2.63;;;;;;;;;;5125174;28;20019;-72
2021/10/10 12:07:56;;;;;;;6.78;2.25;;;;;;;;;;5126206;27;20470;-72
2021/10/10 12:10:24;;;;;;;10.18;2.13;;;;;;;;;;5127869;27;20033;-72
2021/10/10 12:12:53;;;;;;;14.55;2.83;;;;;;;;;;5129260;27;20474;-73
2021/10/10 12:15:23;;;;;;;6.60;2.20;;;;;;;;;;5127809;27;20051;-73
2021/10/10 12:17:50;;;;;;;6.60;2.35;;;;;;;;;;5129130;27;20049;-72
2021/10/10 12:20:16;;;;;;;7.07;1.83;;;;;;;;;;5128987;27;20112;-73
2021/10/10 12:22:46;;;;;;;6.38;2.25;;;;;;;;;;5128886;27;20412;-73
2021/10/10 12:25:21;;;;;;;5.25;1.77;;;;;;;;;;5128773;27;20317;-73
2021/10/10 12:28:14;;;;;;;6.90;2.00;;;;;;;;;;5126955;27;20065;-73
2021/10/10 12:30:42;;;;;;;12.35;2.33;;;;;;;;;;5126614;27;20031;-73
2021/10/10 12:33:26;;;;;;;10.82;2.47;;;;;;;;;;5128779;27;20027;-72
2021/10/10 12:35:57;;;;;;;6.00;2.17;;;;;;;;;;5129084;27;20019;-72
2021/10/10 12:38:49;;;;;;;7.57;2.20;;;;;;;;;;5126634;27;20022;-72
2021/10/10 12:41:21;;;;;;;4.88;1.60;;;;;;;;;;5124921;27;20027;-72
2021/10/10 12:43:52;;;;;;;5.00;2.03;;;;;;;;;;5128706;27;20019;-72
2021/10/10 12:46:19;;;;;;;6.72;2.55;;;;;;;;;;5127094;27;20019;-73
2021/10/10 12:49:18;;;;;;;5.70;1.92;;;;;;;;;;5128743;27;20023;-73
2021/10/10 12:51:50;;;;;;;7.95;2.60;;;;;;;;;;5104433;27;20035;-73
2021/10/10 12:54:20;;;;;;;6.55;2.13;;;;;;;;;;5128367;27;20031;-72
2021/10/10 12:57:06;;;;;;;5.63;2.00;;;;;;;;;;5128121;27;20039;-73
2021/10/10 12:59:33;;;;;;;6.22;1.90;;;;;;;;;;5126718;27;20047;-72
2021/10/10 13:02:00;;;;;;;5.75;1.85;;;;;;;;;;5128847;27;20023;-73
2021/10/10 13:04:27;;;;;;;5.30;1.80;;;;;;;;;;5127907;27;20019;-72
2021/10/10 13:06:54;;;;;;;6.25;1.80;;;;;;;;;;5126884;27;20091;-72
2021/10/10 13:09:24;;;;;;;5.30;1.60;;;;;;;;;;5126628;27;20019;-72
2021/10/10 13:11:51;;;;;;;9.05;2.13;;;;;;;;;;5128398;27;20038;-72
2021/10/10 13:14:17;;;;;;;7.32;1.98;;;;;;;;;;5127864;27;20033;-73
2021/10/10 13:16:43;;;;;;;12.05;1.88;;;;;;;;;;5127850;27;20508;-73
2021/10/10 13:19:09;;;;;;;5.32;1.77;;;;;;;;;;5127194;27;20056;-72
2021/10/10 13:21:35;;;;;;;9.10;1.73;;;;;;;;;;5127791;27;20030;-73
2021/10/10 13:24:02;;;;;;;7.25;2.05;;;;;;;;;;5125133;27;20030;-73
2021/10/10 13:26:28;;;;;;;7.25;1.95;;;;;;;;;;5127916;27;20050;-72
2021/10/10 13:28:54;;;;;;;6.55;1.95;;;;;;;;;;5127491;27;20043;-72
2021/10/10 13:31:21;;;;;;;5.78;1.50;;;;;;;;;;5125759;27;20505;-72
2021/10/10 13:33:47;;;;;;;7.32;2.47;;;;;;;;;;5127763;27;20043;-72
2021/10/10 13:36:15;;;;;;;9.65;2.28;;;;;;;;;;5127622;27;20015;-72
2021/10/10 13:38:41;;;;;;;8.15;2.10;;;;;;;;;;5127621;27;20080;-72
2021/10/10 13:41:08;;;;;;;5.43;1.80;;;;;;;;;;5125965;27;20023;-72
2021/10/10 13:43:34;;;;;;;8.55;2.25;;;;;;;;;;5127068;27;20019;-73
2021/10/10 13:46:00;;;;;;;9.38;2.15;;;;;;;;;;5126939;27;20019;-72
2021/10/10 13:48:28;;;;;;;6.57;2.17;;;;;;;;;;5127401;27;20023;-72
2021/10/10 13:50:55;;;;;;;8.13;1.65;;;;;;;;;;5126136;27;20011;-73
2021/10/10 13:53:21;;;;;;;4.40;1.85;;;;;;;;;;5126941;27;20496;-73
2021/10/10 13:55:47;;;;;;;4.95;1.95;;;;;;;;;;5126969;27;20027;-72
2021/10/10 13:58:14;;;;;;;5.72;1.80;;;;;;;;;;5126837;27;20124;-72
2021/10/10 14:00:43;;;;;;;7.10;2.33;;;;;;;;;;5125686;27;20023;-73
2021/10/10 14:03:10;;;;;;;7.45;1.85;;;;;;;;;;5126875;27;20387;-72
2021/10/10 14:05:38;;;;;;;10.57;2.00;;;;;;;;;;5127032;27;20027;-72
2021/10/10 14:08:05;;;;;;;4.55;1.70;;;;;;;;;;5126470;27;20043;-73
2021/10/10 14:10:31;;;;;;;5.88;1.95;;;;;;;;;;5125456;27;20546;-72
2021/10/10 14:12:57;;;;;;;6.93;2.13;;;;;;;;;;5127162;27;20076;-72
2021/10/10 14:15:23;;;;;;;8.23;1.90;;;;;;;;;;5126542;27;20031;-73
2021/10/10 14:17:49;;;;;;;7.53;1.90;;;;;;;;;;5126314;27;20482;-73
2021/10/10 14:20:19;;;;;;;6.78;2.75;;;;;;;;;;5126371;27;20027;-72
2021/10/10 14:22:46;;;;;;;4.35;1.40;;;;;;;;;;5126697;27;20023;-72
2021/10/10 14:25:12;;;;;;;5.60;1.60;;;;;;;;;;5124887;27;20394;-72
2021/10/10 14:27:38;;;;;;;6.03;1.63;;;;;;;;;;5126419;27;20058;-72
2021/10/10 14:30:08;;;;;;;5.20;1.80;;;;;;;;;;5126011;27;20437;-73
2021/10/10 14:32:34;;;;;;;5.85;1.42;;;;;;;;;;5124889;27;20485;-73
2021/10/10 14:35:01;;;;;;;4.45;1.35;;;;;;;;;;5126367;27;20034;-72
2021/10/10 14:37:27;;;;;;;5.47;1.50;;;;;;;;;;5126446;27;20064;-72
2021/10/10 14:39:56;;;;;;;8.02;1.90;;;;;;;;;;5124467;27;20015;-72
2021/10/10 14:45:35;;;;;;;4.88;1.65;;;;;;;;;;5082268;28;20028;-73
2021/10/10 14:48:08;;;;;;;5.28;2.05;;;;;;;;;;5082028;28;20039;-72
2021/10/10 14:50:35;;;;;;;11.20;1.73;;;;;;;;;;5105397;27;20028;-72
2021/10/10 14:53:02;;;;;;;6.50;1.70;;;;;;;;;;5125833;27;20193;-72
2021/10/10 14:55:28;;;;;;;5.22;1.75;;;;;;;;;;5126263;27;20260;-72
2021/10/10 14:57:57;;;;;;;4.28;2.00;;;;;;;;;;5125966;27;20147;-73
2021/10/10 15:00:23;;;;;;;7.82;1.95;;;;;;;;;;5124219;27;20433;-72
2021/10/10 15:02:51;;;;;;;5.22;1.52;;;;;;;;;;5126318;27;20498;-73
2021/10/10 15:05:17;;;;;;;4.10;1.38;;;;;;;;;;5125792;27;20023;-72
2021/10/10 15:07:48;;;;;;;4.78;1.80;;;;;;;;;;5125729;27;20039;-72
2021/10/10 15:10:14;;;;;;;3.55;1.30;;;;;;;;;;5124575;27;20336;-72